Time;durP1;ratioP1;P1;durP2;ratioP2;P2;SDS_P1;SDS_P2;PMS_P1;PMS_P2;Temp;Humidity;BMP_temperature;BMP_pressure;BME280_temperature;BME280_humidity;BME280_pressure;Samples;Min_cycle;Max_cycle;Signal;HPM_P1;HPM_P2
2023/04/26 00:01:04;;;;;;;11.15;6.87;;;;;;;7.10;93.43;99447.65;1702309;84;25558;-65
2023/04/26 00:03:31;;;;;;;12.78;6.12;;;;;;;7.09;93.26;99440.67;1702207;84;27494;-65
2023/04/26 00:06:04;;;;;;;9.75;6.33;;;;;;;7.08;93.35;99441.79;1702272;84;25566;-65
2023/04/26 00:08:30;;;;;;;9.40;5.75;;;;;;;7.05;93.28;99445.08;1702358;84;25621;-65
2023/04/26 00:10:56;;;;;;;14.70;7.10;;;;;;;7.04;93.11;99452.11;1702234;83;25470;-65
2023/04/26 00:13:23;;;;;;;10.38;6.15;;;;;;;7.01;93.29;99453.50;1702300;83;25530;-65
2023/04/26 00:15:49;;;;;;;12.90;6.30;;;;;;;7.00;93.56;99451.92;1702125;84;28044;-65
2023/04/26 00:18:16;;;;;;;11.05;6.80;;;;;;;6.98;93.46;99456.82;1701800;84;25601;-65
2023/04/26 00:20:43;;;;;;;13.78;7.47;;;;;;;6.97;93.47;99457.91;1702469;83;25648;-65
2023/04/26 00:23:09;;;;;;;13.25;7.83;;;;;;;6.96;93.66;99452.83;1701653;84;25639;-65
2023/04/26 00:25:37;;;;;;;10.53;6.37;;;;;;;6.94;93.68;99453.70;1702328;83;25642;-65
2023/04/26 00:28:04;;;;;;;11.75;6.30;;;;;;;6.92;93.77;99458.81;1702264;84;27343;-65
2023/04/26 00:30:31;;;;;;;9.00;5.78;;;;;;;6.91;93.89;99460.46;1702198;84;25695;-65
2023/04/26 00:32:57;;;;;;;9.55;6.03;;;;;;;6.91;94.10;99455.08;1702213;83;25608;-65
2023/04/26 00:35:24;;;;;;;9.35;5.97;;;;;;;6.87;93.96;99461.63;1701988;83;27529;-65
2023/04/26 00:37:51;;;;;;;8.85;5.55;;;;;;;6.85;94.08;99466.52;1702133;84;25459;-65
2023/04/26 00:40:19;;;;;;;7.62;4.87;;;;;;;6.83;94.15;99466.59;1702088;84;27395;-65
2023/04/26 00:42:45;;;;;;;8.28;4.55;;;;;;;6.80;94.27;99467.97;1701957;84;25608;-65
2023/04/26 00:45:12;;;;;;;5.75;4.70;;;;;;;6.75;94.24;99469.44;1702415;83;25564;-65
2023/04/26 00:47:38;;;;;;;10.45;4.95;;;;;;;6.73;94.24;99482.39;1702132;83;25406;-66
2023/04/26 00:50:07;;;;;;;9.30;4.83;;;;;;;6.72;94.43;99493.70;1702185;83;25447;-66
2023/04/26 00:52:34;;;;;;;10.28;4.67;;;;;;;6.72;94.58;99495.56;1702241;84;27333;-66
2023/04/26 00:55:01;;;;;;;9.45;4.75;;;;;;;6.70;94.38;99491.05;1702084;83;25404;-66
2023/04/26 00:57:28;;;;;;;8.80;4.75;;;;;;;6.68;94.16;99502.66;1702006;84;25435;-66
2023/04/26 00:59:55;;;;;;;8.88;4.17;;;;;;;6.66;94.02;99504.86;1701970;84;25632;-65
2023/04/26 01:02:21;;;;;;;8.35;4.20;;;;;;;6.66;94.21;99512.36;1702073;84;25395;-65
2023/04/26 01:04:48;;;;;;;7.08;4.33;;;;;;;6.63;94.10;99514.30;1702181;83;27247;-65
2023/04/26 01:07:14;;;;;;;7.75;4.22;;;;;;;6.61;93.91;99513.02;1667960;86;25661;-65
2023/04/26 01:09:41;;;;;;;4.40;3.62;;;;;;;6.58;93.79;99519.78;1648399;87;25565;-66
2023/04/26 01:12:10;;;;;;;4.22;3.05;;;;;;;6.54;93.69;99522.84;1701971;84;25568;-66
2023/04/26 01:14:38;;;;;;;2.70;2.25;;;;;;;6.50;93.39;99528.55;1702497;84;25664;-66
2023/04/26 01:17:04;;;;;;;3.10;2.20;;;;;;;6.41;92.64;99527.11;1702597;83;27375;-67
2023/04/26 01:19:31;;;;;;;2.55;1.82;;;;;;;6.31;92.28;99529.45;1702249;84;25640;-66
2023/04/26 01:21:58;;;;;;;2.20;1.87;;;;;;;6.25;92.25;99526.63;1702368;84;25442;-66
2023/04/26 01:24:24;;;;;;;2.40;1.60;;;;;;;6.20;92.15;99517.85;1702447;84;27590;-66
2023/04/26 01:26:50;;;;;;;5.55;2.22;;;;;;;6.14;92.10;99523.88;1702453;84;25592;-66
2023/04/26 01:29:19;;;;;;;5.55;1.90;;;;;;;6.10;92.18;99521.55;1702443;84;27399;-66
2023/04/26 01:31:47;;;;;;;3.12;2.15;;;;;;;6.08;92.30;99518.34;1702615;83;25604;-65
2023/04/26 01:34:14;;;;;;;4.40;2.10;;;;;;;6.03;92.34;99513.89;1702505;84;25422;-65
2023/04/26 01:36:41;;;;;;;2.22;2.00;;;;;;;5.99;92.25;99524.95;1702558;83;25621;-65
2023/04/26 01:39:08;;;;;;;10.13;3.20;;;;;;;5.96;92.25;99529.05;1702559;83;25397;-66
2023/04/26 01:41:34;;;;;;;3.52;2.30;;;;;;;5.96;92.20;99531.73;1702467;83;27439;-66
2023/04/26 01:44:00;;;;;;;3.37;1.70;;;;;;;5.93;92.27;99532.28;1702386;84;25548;-66
2023/04/26 01:46:26;;;;;;;5.37;2.00;;;;;;;5.93;92.55;99532.28;1702460;84;29611;-66
2023/04/26 01:48:53;;;;;;;3.77;1.72;;;;;;;5.93;92.55;99537.66;1702502;83;25474;-66
2023/04/26 01:51:20;;;;;;;2.67;1.90;;;;;;;5.93;92.66;99542.23;1702475;84;25629;-66
2023/04/26 01:53:47;;;;;;;4.78;1.98;;;;;;;5.90;92.38;99544.95;1702465;84;27319;-66
2023/04/26 01:56:13;;;;;;;2.92;2.10;;;;;;;5.88;92.40;99543.11;1702390;83;32723;-66
2023/04/26 01:58:39;;;;;;;3.30;1.80;;;;;;;5.88;92.36;99554.41;1702452;83;30047;-66
2023/04/26 02:01:08;;;;;;;5.45;2.30;;;;;;;5.85;92.26;99550.41;1702302;84;25649;-66
2023/04/26 02:03:35;;;;;;;;;;;;;;;5.84;92.53;99556.89;1705123;83;25570;-67
2023/04/26 02:06:03;;;;;;;2.47;1.92;;;;;;;5.85;92.62;99551.75;1702275;84;27441;-67
2023/04/26 02:08:29;;;;;;;3.30;2.52;;;;;;;5.82;92.76;99548.31;1702310;84;25865;-67
2023/04/26 02:10:57;;;;;;;3.27;2.20;;;;;;;5.81;92.73;99552.10;1702347;84;25462;-67
2023/04/26 02:13:23;;;;;;;3.25;2.10;;;;;;;5.79;92.63;99551.05;1702068;84;25797;-67
2023/04/26 02:15:51;;;;;;;4.03;2.58;;;;;;;5.77;92.65;99551.90;1702302;84;25664;-66
2023/04/26 02:18:20;;;;;;;4.22;2.70;;;;;;;5.77;92.60;99555.11;1702440;83;27986;-67
2023/04/26 02:20:45;;;;;;;2.95;2.15;;;;;;;5.74;92.37;99551.70;1702207;84;25592;-67
2023/04/26 02:23:12;;;;;;;4.40;3.02;;;;;;;5.71;92.37;99559.77;1702404;84;25642;-66
2023/04/26 02:25:41;;;;;;;3.65;2.47;;;;;;;5.69;92.36;99556.59;1702319;84;26176;-66
2023/04/26 02:28:07;;;;;;;3.92;3.12;;;;;;;5.65;92.24;99554.23;1702468;84;25572;-66
2023/04/26 02:30:33;;;;;;;4.95;2.92;;;;;;;5.64;92.32;99565.28;1702401;84;27550;-66
2023/04/26 02:32:59;;;;;;;4.17;3.20;;;;;;;5.63;92.45;99562.33;1702357;83;33059;-66
2023/04/26 02:35:26;;;;;;;5.67;3.40;;;;;;;5.62;92.62;99561.55;1702560;83;25427;-67
2023/04/26 02:37:52;;;;;;;3.90;3.17;;;;;;;5.63;92.63;99554.28;1702474;83;34652;-67
2023/04/26 02:40:19;;;;;;;7.35;3.20;;;;;;;5.62;92.58;99552.16;1702430;84;25486;-67
2023/04/26 02:42:46;;;;;;;5.35;3.22;;;;;;;5.59;92.28;99548.16;1702433;83;27353;-67
2023/04/26 02:45:13;;;;;;;4.55;2.80;;;;;;;5.58;92.21;99556.50;1702324;84;25742;-67
2023/04/26 02:47:40;;;;;;;8.73;3.60;;;;;;;5.54;91.98;99558.98;1702320;84;25436;-66
2023/04/26 02:50:09;;;;;;;5.83;3.08;;;;;;;5.51;91.90;99562.23;1702366;84;25522;-66
2023/04/26 02:52:36;;;;;;;4.35;3.27;;;;;;;5.47;92.03;99555.88;1702548;84;25647;-66
2023/04/26 02:55:04;;;;;;;3.95;2.77;;;;;;;5.48;92.41;99555.32;1702413;83;27352;-66
2023/04/26 02:57:32;;;;;;;5.40;4.10;;;;;;;5.47;92.72;99550.52;1702267;83;25583;-66
2023/04/26 02:59:58;;;;;;;5.45;3.50;;;;;;;5.46;92.96;99550.80;1702370;84;25411;-66
2023/04/26 03:02:24;;;;;;;7.62;5.65;;;;;;;5.46;93.04;99555.61;1702239;84;26413;-66
2023/04/26 03:04:51;;;;;;;6.83;6.33;;;;;;;5.47;93.19;99554.53;1682075;84;25444;-66
2023/04/26 03:07:17;;;;;;;6.20;5.72;;;;;;;5.47;93.30;99553.75;1702392;84;27415;-66
2023/04/26 03:09:43;;;;;;;7.60;6.90;;;;;;;5.47;93.50;99551.85;1702659;83;27253;-66
2023/04/26 03:12:10;;;;;;;5.97;4.60;;;;;;;5.48;93.78;99556.66;1702166;84;25489;-66
2023/04/26 03:14:36;;;;;;;13.80;12.82;;;;;;;5.47;93.85;99554.53;1702357;84;25644;-66
2023/04/26 03:17:02;;;;;;;22.95;21.27;;;;;;;5.50;94.17;99552.61;1702227;84;25561;-66
2023/04/26 03:19:28;;;;;;;24.00;22.40;;;;;;;5.51;94.44;99552.06;1702385;83;27404;-66
2023/04/26 03:21:56;;;;;;;9.78;8.93;;;;;;;5.52;94.54;99561.16;1702371;84;25575;-66
2023/04/26 03:24:22;;;;;;;8.35;6.37;;;;;;;5.54;94.59;99558.19;1702363;84;25609;-66
2023/04/26 03:26:48;;;;;;;22.73;21.12;;;;;;;5.57;94.84;99564.31;1702496;83;25690;-66
2023/04/26 03:29:16;;;;;;;40.35;37.50;;;;;;;5.58;94.79;99557.84;1702312;84;32439;-66
2023/04/26 03:31:43;;;;;;;24.60;22.67;;;;;;;5.58;94.85;99565.89;1702372;84;27386;-66
2023/04/26 03:34:09;;;;;;;33.73;31.25;;;;;;;5.58;94.74;99568.57;1702248;84;25576;-66
2023/04/26 03:36:35;;;;;;;49.53;46.30;;;;;;;5.59;95.03;99572.30;1702486;83;25620;-66
2023/04/26 03:39:01;;;;;;;45.40;42.10;;;;;;;5.61;95.15;99570.12;1702280;84;35071;-66
2023/04/26 03:41:27;;;;;;;26.60;24.57;;;;;;;5.63;95.24;99571.17;1702414;84;32459;-66
2023/04/26 03:43:53;;;;;;;9.13;5.25;;;;;;;5.70;95.67;99578.84;1702299;84;28039;-66
2023/04/26 03:46:19;;;;;;;8.73;4.97;;;;;;;5.70;95.67;99578.84;1702275;83;25667;-66
2023/04/26 03:48:45;;;;;;;9.28;5.25;;;;;;;5.69;95.58;99566.54;1702278;84;25474;-66
2023/04/26 03:51:12;;;;;;;8.13;5.05;;;;;;;5.69;95.63;99563.85;1702187;84;25667;-66
2023/04/26 03:53:38;;;;;;;8.00;4.78;;;;;;;5.71;95.48;99575.09;1702411;83;32395;-66
2023/04/26 03:56:06;;;;;;;10.82;6.33;;;;;;;5.71;95.36;99579.11;1702218;84;27427;-67
2023/04/26 03:58:32;;;;;;;43.40;40.52;;;;;;;5.71;95.54;99573.74;1702319;83;25459;-67
2023/04/26 04:00:59;;;;;;;56.33;52.30;;;;;;;5.72;95.62;99570.77;1701416;84;25417;-67
2023/04/26 04:03:26;;;;;;;73.37;68.17;;;;;;;5.72;95.64;99573.45;1702300;84;25621;-67
2023/04/26 04:05:52;;;;;;;19.10;17.27;;;;;;;5.75;95.90;99573.39;1702328;84;25576;-67
2023/04/26 04:08:18;;;;;;;43.33;40.30;;;;;;;5.77;96.00;99569.86;1702253;84;27368;-68
2023/04/26 04:10:44;;;;;;;76.62;71.07;;;;;;;5.79;96.08;99568.50;1702264;84;33136;-68
2023/04/26 04:13:10;;;;;;;83.15;77.32;;;;;;;5.82;96.09;99571.12;1702164;84;25426;-68
2023/04/26 04:15:37;;;;;;;60.90;56.20;;;;;;;5.84;96.02;99568.14;1701925;83;25579;-68
2023/04/26 04:18:03;;;;;;;32.25;29.50;;;;;;;5.83;95.82;99571.38;1702135;84;25406;-68
2023/04/26 04:20:30;;;;;;;14.28;12.18;;;;;;;5.84;95.78;99572.98;1702109;84;29480;-68
2023/04/26 04:23:03;;;;;;;13.30;8.30;;;;;;;5.84;95.65;99574.33;1701820;84;25613;-68
2023/04/26 04:25:50;;;;;;;14.83;12.60;;;;;;;5.82;95.48;99572.46;1702121;84;25576;-69
2023/04/26 04:28:16;;;;;;;10.82;6.30;;;;;;;5.82;95.30;99580.52;1711419;83;25692;-68
2023/04/26 04:30:43;;;;;;;9.00;6.58;;;;;;;5.77;95.09;99581.42;1711804;83;25566;-68
2023/04/26 04:33:09;;;;;;;11.12;10.00;;;;;;;5.73;95.03;99585.77;1709720;83;27339;-68
2023/04/26 04:35:35;;;;;;;17.37;11.90;;;;;;;5.73;95.06;99589.00;1711611;83;25374;-67
2023/04/26 04:38:02;;;;;;;23.98;21.77;;;;;;;5.74;95.41;99573.16;1711550;83;25379;-66
2023/04/26 04:40:30;;;;;;;68.07;63.25;;;;;;;5.75;95.68;99584.13;1711545;83;25638;-66
2023/04/26 04:42:56;;;;;;;81.28;75.17;;;;;;;5.77;95.65;99585.97;1711692;83;25590;-67
2023/04/26 04:45:23;;;;;;;80.53;74.77;;;;;;;5.79;95.91;99583.26;1711309;83;27366;-67
2023/04/26 04:47:49;;;;;;;84.00;77.22;;;;;;;5.82;95.96;99595.27;1711582;83;25950;-66
2023/04/26 04:50:17;;;;;;;87.10;80.72;;;;;;;5.85;96.10;99587.20;1711614;83;25620;-72
2023/04/26 04:52:43;;;;;;;85.90;79.67;;;;;;;5.83;95.11;99597.44;1711779;83;26343;-71
2023/04/26 04:55:09;;;;;;;86.25;79.60;;;;;;;5.79;94.72;99597.23;1711855;83;25528;-72
2023/04/26 04:57:36;;;;;;;89.70;83.12;;;;;;;5.80;95.13;99595.56;1711662;83;27509;-72
2023/04/26 05:00:09;;;;;;;85.03;78.47;;;;;;;5.77;94.54;99601.55;1710569;83;25518;-72
2023/04/26 05:02:33;;;;;;;84.67;78.33;;;;;;;5.77;94.74;99605.57;1711196;83;25505;-72
2023/04/26 05:05:00;;;;;;;86.20;79.58;;;;;;;5.78;94.60;99610.38;1711607;83;26252;-72
2023/04/26 05:07:27;;;;;;;86.70;79.85;;;;;;;5.76;94.23;99604.52;1711778;83;25484;-71
2023/04/26 05:09:53;;;;;;;82.27;76.15;;;;;;;5.72;93.28;99612.89;1711689;83;27368;-72
2023/04/26 05:12:19;;;;;;;87.17;80.43;;;;;;;5.66;92.94;99608.70;1711582;83;31571;-72
2023/04/26 05:14:45;;;;;;;85.40;78.75;;;;;;;5.66;93.49;99615.42;1712311;83;25545;-72
2023/04/26 05:17:12;;;;;;;85.95;79.62;;;;;;;5.66;92.46;99618.09;1711620;83;25391;-73
2023/04/26 05:19:38;;;;;;;83.15;77.05;;;;;;;5.66;93.25;99614.08;1711529;83;25392;-71
2023/04/26 05:22:04;;;;;;;84.20;78.07;;;;;;;5.68;93.34;99617.25;1711701;83;27331;-72
2023/04/26 05:24:30;;;;;;;83.57;77.03;;;;;;;5.74;94.02;99618.78;1691428;83;32528;-70
2023/04/26 05:27:00;;;;;;;85.50;79.22;;;;;;;5.80;93.97;99624.30;1710189;83;25612;-69
2023/04/26 05:29:30;;;;;;;86.00;79.70;;;;;;;5.85;93.79;99622.88;1707410;84;25604;-71
2023/04/26 05:31:56;;;;;;;83.75;77.53;;;;;;;5.89;93.22;99629.27;1707434;84;25639;-70
2023/04/26 05:34:24;;;;;;;84.07;77.67;;;;;;;5.93;92.87;99628.92;1711497;83;27394;-70
2023/04/26 05:36:50;;;;;;;83.75;77.62;;;;;;;5.96;92.77;99631.61;1711639;83;25636;-70
2023/04/26 05:39:19;;;;;;;83.75;77.15;;;;;;;6.06;92.61;99636.80;1711551;83;25448;-71
2023/04/26 05:41:45;;;;;;;83.62;77.72;;;;;;;6.19;93.16;99640.59;1711870;83;25768;-71
2023/04/26 05:44:13;;;;;;;83.12;77.00;;;;;;;6.28;92.33;99634.81;1711575;83;25460;-71
2023/04/26 05:46:41;;;;;;;83.97;77.57;;;;;;;6.39;92.04;99640.00;1711907;83;27346;-71
2023/04/26 05:49:07;;;;;;;84.85;78.45;;;;;;;6.48;92.09;99644.37;1711582;83;25617;-71
2023/04/26 05:51:33;;;;;;;84.62;78.35;;;;;;;6.59;91.56;99642.83;1711518;83;25423;-71
2023/04/26 05:54:00;;;;;;;84.35;78.20;;;;;;;6.65;91.44;99642.44;1711529;83;25624;-71
2023/04/26 05:56:26;;;;;;;84.07;77.92;;;;;;;6.80;92.33;99647.28;1711471;83;25414;-71
2023/04/26 05:58:53;;;;;;;82.65;76.55;;;;;;;6.96;92.25;99649.11;1711629;83;27072;-71
2023/04/26 06:01:19;;;;;;;82.65;76.57;;;;;;;7.04;91.19;99653.78;1711436;83;25703;-71
2023/04/26 06:03:47;;;;;;;83.75;77.50;;;;;;;7.15;91.31;99659.21;1711634;83;25447;-72
2023/04/26 06:06:14;;;;;;;83.30;76.80;;;;;;;7.23;89.62;99665.76;1711553;83;25722;-72
2023/04/26 06:08:42;;;;;;;83.80;77.90;;;;;;;7.32;90.13;99662.62;1711324;83;25560;-72
2023/04/26 06:11:09;;;;;;;82.92;76.70;;;;;;;7.41;89.52;99662.70;1711614;83;28048;-72
2023/04/26 06:13:35;;;;;;;84.07;77.70;;;;;;;7.46;89.02;99668.75;1711349;83;25957;-72
2023/04/26 06:16:02;;;;;;;84.30;77.90;;;;;;;7.58;88.99;99669.56;1711802;83;25412;-72
2023/04/26 06:18:28;;;;;;;85.75;79.32;;;;;;;7.64;87.63;99668.89;1711827;83;25606;-72
2023/04/26 06:20:54;;;;;;;82.40;76.53;;;;;;;7.60;86.97;99671.95;1711668;83;25416;-72
2023/04/26 06:23:21;;;;;;;83.20;76.87;;;;;;;7.54;86.51;99671.81;1711805;83;27906;-72
2023/04/26 06:25:47;;;;;;;15.75;6.20;;;;;;;7.55;85.44;99676.11;1711663;83;25643;-72
2023/04/26 06:28:14;;;;;;;9.03;4.60;;;;;;;7.59;85.58;99675.17;1707979;83;25380;-72
2023/04/26 06:30:42;;;;;;;9.88;5.60;;;;;;;7.79;86.83;99674.48;1706902;84;25597;-72
2023/04/26 06:33:08;;;;;;;20.30;12.40;;;;;;;7.93;86.49;99671.73;1706970;83;25544;-73
2023/04/26 06:35:41;;;;;;;9.25;5.03;;;;;;;8.01;86.52;99668.30;1707046;83;27375;-74
2023/04/26 06:38:08;;;;;;;18.12;5.58;;;;;;;8.01;85.70;99666.95;1706887;83;25476;-74
2023/04/26 06:40:37;;;;;;;12.58;5.20;;;;;;;8.12;85.33;99662.92;1707099;84;25406;-74
2023/04/26 06:43:04;;;;;;;13.78;5.37;;;;;;;8.33;86.20;99667.79;1707595;84;25828;-75
2023/04/26 06:45:31;;;;;;;13.13;5.33;;;;;;;8.59;84.38;99671.42;1707058;84;25472;-75
2023/04/26 06:47:59;;;;;;;14.68;5.03;;;;;;;8.91;84.02;99668.14;1714490;83;27342;-75
2023/04/26 06:50:26;;;;;;;13.32;4.60;;;;;;;9.17;82.95;99674.16;1714251;83;25609;-72
2023/04/26 06:52:52;;;;;;;9.18;3.75;;;;;;;9.51;82.92;99668.00;1707526;83;25364;-74
2023/04/26 06:55:18;;;;;;;11.20;4.85;;;;;;;9.78;81.61;99668.02;1707332;83;25687;-75
2023/04/26 06:57:45;;;;;;;9.30;4.67;;;;;;;10.04;81.00;99662.58;1707353;83;25486;-75
2023/04/26 07:00:14;;;;;;;15.10;4.47;;;;;;;10.32;81.29;99659.52;1707044;84;27318;-74
2023/04/26 07:02:40;;;;;;;13.45;4.10;;;;;;;10.72;80.42;99651.91;1707232;84;25572;-74
2023/04/26 07:05:09;;;;;;;11.38;3.45;;;;;;;10.86;77.83;99665.77;1707061;83;25390;-74
2023/04/26 07:07:35;;;;;;;10.13;3.87;;;;;;;10.74;76.63;99674.58;1707123;83;25605;-75
2023/04/26 07:10:04;;;;;;;11.22;3.83;;;;;;;10.59;74.97;99675.90;1707106;83;25186;-75
2023/04/26 07:12:30;;;;;;;11.53;3.70;;;;;;;10.51;73.63;99669.98;1707056;83;27287;-74
2023/04/26 07:14:58;;;;;;;10.32;3.02;;;;;;;10.65;74.21;99681.37;1706956;83;25788;-77
2023/04/26 07:17:24;;;;;;;12.13;3.58;;;;;;;10.69;72.19;99674.19;1707089;83;25601;-75
2023/04/26 07:19:50;;;;;;;11.10;3.17;;;;;;;10.69;71.62;99685.01;1707487;83;26179;-74
2023/04/26 07:22:16;;;;;;;14.18;3.05;;;;;;;10.92;71.63;99679.36;1707150;84;25550;-74
2023/04/26 07:24:43;;;;;;;6.28;2.75;;;;;;;10.98;68.94;99680.20;1707118;84;28119;-74
2023/04/26 07:27:10;;;;;;;11.95;2.58;;;;;;;11.24;70.00;99682.52;1707628;83;25380;-73
2023/04/26 07:29:36;;;;;;;6.30;2.55;;;;;;;11.70;69.41;99681.56;1711927;83;25383;-74
2023/04/26 07:32:02;;;;;;;10.23;3.77;;;;;;;12.07;69.34;99691.24;1698273;83;26223;-74
2023/04/26 07:34:29;;;;;;;11.73;3.98;;;;;;;12.31;68.25;99693.23;1711843;83;25401;-74
2023/04/26 07:36:55;;;;;;;12.45;2.95;;;;;;;12.54;66.53;99687.40;1712041;83;27384;-74
2023/04/26 07:39:22;;;;;;;9.60;3.05;;;;;;;12.84;64.56;99684.50;1711786;83;25625;-74
2023/04/26 07:41:49;;;;;;;5.50;2.27;;;;;;;13.21;65.39;99688.00;1712243;83;25391;-74
2023/04/26 07:44:16;;;;;;;7.95;2.35;;;;;;;13.46;63.40;99693.41;1712340;83;25626;-75
2023/04/26 07:46:42;;;;;;;11.90;2.35;;;;;;;13.74;62.29;99698.91;1713014;83;25452;-77
2023/04/26 07:49:09;;;;;;;8.60;2.17;;;;;;;14.20;62.34;99690.45;1712122;83;27381;-76
2023/04/26 07:51:36;;;;;;;7.35;2.50;;;;;;;14.58;59.68;99691.81;1712049;83;25614;-76
2023/04/26 07:54:03;;;;;;;9.53;2.37;;;;;;;14.79;59.88;99695.66;1711859;83;25577;-77
2023/04/26 07:56:29;;;;;;;8.30;2.40;;;;;;;15.02;59.45;99697.77;1711655;83;25857;-75
2023/04/26 07:58:56;;;;;;;6.12;2.12;;;;;;;15.18;56.45;99696.37;1711875;83;25613;-74
2023/04/26 08:01:23;;;;;;;9.53;2.12;;;;;;;14.99;55.59;99703.34;1702863;83;27388;-74
2023/04/26 08:03:49;;;;;;;7.47;2.17;;;;;;;15.03;56.03;99698.75;1709495;83;25566;-74
2023/04/26 08:06:16;;;;;;;7.00;2.30;;;;;;;15.40;55.64;99693.56;1711749;83;25614;-75
2023/04/26 08:08:48;;;;;;;7.97;2.30;;;;;;;15.31;54.09;99699.20;1711667;83;25725;-74
2023/04/26 08:11:12;;;;;;;8.13;2.12;;;;;;;15.45;54.40;99707.69;1711267;83;25623;-74
2023/04/26 08:13:38;;;;;;;10.70;2.08;;;;;;;15.76;54.14;99703.30;1711774;83;27952;-73
2023/04/26 08:16:06;;;;;;;6.58;2.02;;;;;;;15.93;53.21;99708.12;1711320;83;25664;-75
2023/04/26 08:18:32;;;;;;;10.48;2.30;;;;;;;15.42;49.87;99713.06;1711808;83;25392;-75
2023/04/26 08:20:58;;;;;;;6.62;1.65;;;;;;;15.07;49.74;99709.75;1711203;83;25631;-74
2023/04/26 08:23:25;;;;;;;8.10;2.10;;;;;;;14.85;49.33;99713.89;1711368;83;25374;-78
2023/04/26 08:25:51;;;;;;;4.90;2.12;;;;;;;14.81;50.25;99708.92;1711433;83;27330;-74
2023/04/26 08:28:17;;;;;;;8.53;2.20;;;;;;;15.24;51.88;99708.59;1711539;83;25849;-77
2023/04/26 08:30:44;;;;;;;8.10;2.10;;;;;;;15.93;50.76;99705.40;1711667;83;25645;-76
2023/04/26 08:33:10;;;;;;;8.48;2.33;;;;;;;16.17;49.79;99711.90;1711395;83;25749;-77
2023/04/26 08:35:36;;;;;;;4.83;1.85;;;;;;;16.13;49.20;99721.19;1711424;83;25589;-78
2023/04/26 08:38:03;;;;;;;6.67;1.90;;;;;;;15.60;47.50;99702.56;1712088;83;27491;-77
2023/04/26 08:40:29;;;;;;;4.90;2.20;;;;;;;15.12;47.00;99714.94;1712081;83;25807;-76
2023/04/26 08:42:57;;;;;;;11.43;2.45;;;;;;;14.61;46.80;99719.72;1711768;83;25586;-76
2023/04/26 08:45:25;;;;;;;11.57;2.52;;;;;;;13.99;46.09;99719.19;1711895;83;25698;-77
2023/04/26 08:48:07;;;;;;;10.78;2.47;;;;;;;13.60;47.34;99718.30;1717546;82;25406;-79
2023/04/26 08:50:35;;;;;;;8.43;2.35;;;;;;;13.24;47.78;99728.03;1705532;84;27360;-78
2023/04/26 08:53:02;;;;;;;8.75;2.45;;;;;;;12.84;48.47;99720.57;1741483;82;25719;-71
2023/04/26 08:55:29;;;;;;;5.70;2.45;;;;;;;12.54;48.81;99737.59;1741229;82;25469;-70
2023/04/26 08:57:56;;;;;;;7.47;3.40;;;;;;;12.24;49.00;99736.92;1741245;82;25610;-70
2023/04/26 09:00:22;;;;;;;6.62;2.52;;;;;;;11.98;49.78;99735.80;1741266;82;25606;-70
2023/04/26 09:02:51;;;;;;;7.37;2.92;;;;;;;11.78;49.67;99737.60;1705425;84;27395;-69
2023/04/26 09:05:23;;;;;;;6.85;2.52;;;;;;;11.47;49.34;99731.75;1741456;82;25595;-68
2023/04/26 09:07:50;;;;;;;11.95;3.17;;;;;;;11.28;50.54;99727.56;1740717;82;25617;-68
2023/04/26 09:10:20;;;;;;;7.00;2.83;;;;;;;11.19;50.92;99737.09;1704765;84;26212;-68
2023/04/26 09:12:51;;;;;;;6.80;2.92;;;;;;;11.08;51.47;99732.36;1741378;81;25477;-69
2023/04/26 09:15:17;;;;;;;6.45;3.15;;;;;;;10.98;51.55;99734.33;1741271;82;27377;-69
2023/04/26 09:17:44;;;;;;;7.20;3.37;;;;;;;10.87;51.64;99745.83;1740117;82;25652;-66
2023/04/26 09:20:28;;;;;;;6.95;2.98;;;;;;;10.81;52.05;99746.01;1705047;84;25535;-69
2023/04/26 09:23:07;;;;;;;7.53;3.00;;;;;;;10.90;51.58;99737.86;1741462;81;25587;-68
2023/04/26 09:25:34;;;;;;;9.90;3.33;;;;;;;11.36;51.93;99730.00;1741473;82;25610;-69
2023/04/26 09:28:02;;;;;;;5.70;2.80;;;;;;;11.43;51.45;99743.80;1740166;82;27369;-69
2023/04/26 09:30:31;;;;;;;5.10;2.30;;;;;;;11.32;50.50;99739.88;1741146;82;25440;-69
2023/04/26 09:33:03;;;;;;;8.40;2.37;;;;;;;11.08;50.23;99754.02;1684924;84;25428;-71
2023/04/26 09:35:37;;;;;;;8.08;2.27;;;;;;;10.87;50.45;99751.24;1741282;81;26370;-73
2023/04/26 09:38:17;;;;;;;6.08;2.37;;;;;;;10.56;50.41;99744.17;1741257;82;25548;-71
2023/04/26 09:40:47;;;;;;;10.80;2.70;;;;;;;10.32;50.51;99748.19;1740733;82;27392;-71
2023/04/26 09:43:20;;;;;;;5.95;3.30;;;;;;;10.17;50.97;99755.41;1740691;82;25661;-73
2023/04/26 09:45:57;;;;;;;13.45;3.58;;;;;;;10.04;51.71;99749.83;1741339;82;25620;-72
2023/04/26 09:48:30;;;;;;;8.88;3.75;;;;;;;9.98;52.10;99756.52;1740760;82;25636;-72
2023/04/26 09:51:05;;;;;;;7.05;3.83;;;;;;;9.94;52.40;99750.15;1741463;82;25541;-72
2023/04/26 09:53:36;;;;;;;6.42;3.27;;;;;;;9.95;52.31;99752.31;1741288;82;27415;-75
2023/04/26 09:56:18;;;;;;;10.20;3.65;;;;;;;9.86;51.69;99758.50;1709236;83;25502;-73
2023/04/26 09:58:58;;;;;;;4.97;2.62;;;;;;;9.71;51.88;99762.45;1740224;82;25411;-74
2023/04/26 10:01:27;;;;;;;;;;;;;;;9.60;51.82;99769.25;1743636;82;25618;-73
2023/04/26 10:03:55;;;;;;;;;;;;;;;9.44;51.47;99766.22;1743200;82;25399;-74
2023/04/26 10:06:23;;;;;;;8.05;3.45;;;;;;;9.29;51.37;99755.29;1741418;82;27895;-62
2023/04/26 10:08:50;;;;;;;8.35;2.67;;;;;;;9.22;51.61;99754.95;1741273;82;25658;-62
2023/04/26 10:11:18;;;;;;;8.05;2.35;;;;;;;9.28;51.80;99756.42;1741354;82;25468;-72
2023/04/26 10:13:44;;;;;;;5.67;2.05;;;;;;;9.36;51.03;99761.58;1741232;82;25609;-65
2023/04/26 10:16:10;;;;;;;5.72;2.22;;;;;;;9.44;51.86;99759.47;1741442;82;25405;-66
2023/04/26 10:18:37;;;;;;;8.18;1.90;;;;;;;9.57;51.45;99759.11;1739691;82;27321;-66
2023/04/26 10:21:12;;;;;;;7.95;3.67;;;;;;;9.70;51.05;99753.31;1736656;82;27157;-68
2023/04/26 10:23:40;;;;;;;6.60;1.82;;;;;;;9.86;51.90;99759.07;1733516;82;25463;-68
2023/04/26 10:26:07;;;;;;;4.80;1.98;;;;;;;9.96;51.29;99757.94;1705323;84;25680;-70
2023/04/26 10:28:48;;;;;;;5.40;2.15;;;;;;;9.95;50.36;99765.82;1675149;84;25662;-70
2023/04/26 10:31:14;;;;;;;4.42;1.77;;;;;;;9.97;50.52;99760.89;1700365;84;27337;-69
2023/04/26 10:33:41;;;;;;;5.83;2.10;;;;;;;9.96;49.66;99766.05;1683809;85;25425;-69
2023/04/26 10:36:11;;;;;;;4.22;1.52;;;;;;;9.82;49.56;99770.25;1684832;85;25557;-67
2023/04/26 10:38:42;;;;;;;4.95;1.70;;;;;;;9.75;50.53;99772.63;1684400;85;25610;-69
2023/04/26 10:41:29;;;;;;;4.90;1.77;;;;;;;9.76;50.65;99772.88;1684771;85;25574;-70
2023/04/26 10:43:58;;;;;;;10.48;2.25;;;;;;;9.76;50.41;99775.02;1684855;85;27370;-70
2023/04/26 10:46:38;;;;;;;6.40;1.92;;;;;;;9.74;50.44;99781.30;1684395;85;25655;-69
2023/04/26 10:49:22;;;;;;;6.83;2.17;;;;;;;9.69;50.31;99786.28;1697411;83;25818;-68
2023/04/26 10:52:15;;;;;;;8.83;3.27;;;;;;;9.67;49.91;99778.24;1699828;84;25861;-69
2023/04/26 10:54:52;;;;;;;6.40;1.95;;;;;;;9.70;50.25;99784.38;1700647;84;25665;-69
2023/04/26 10:57:22;;;;;;;5.03;1.80;;;;;;;9.79;50.26;99783.84;1697739;84;28030;-69
2023/04/26 11:00:15;;;;;;;7.10;2.40;;;;;;;9.91;50.10;99782.66;1700549;84;25629;-67
2023/04/26 11:03:05;;;;;;;9.48;2.08;;;;;;;10.53;50.86;99786.16;1699988;84;25455;-66
2023/04/26 11:05:47;;;;;;;3.90;1.37;;;;;;;10.72;49.09;99787.16;1700513;84;25636;-67
2023/04/26 11:08:19;;;;;;;9.65;1.90;;;;;;;10.73;47.99;99788.75;1700407;84;25446;-66
2023/04/26 11:10:57;;;;;;;5.30;1.95;;;;;;;10.57;46.66;99785.77;1700566;84;27509;-67
2023/04/26 11:13:23;;;;;;;7.70;1.92;;;;;;;10.38;47.00;99789.36;1700372;84;25678;-66
2023/04/26 11:16:02;;;;;;;8.10;2.12;;;;;;;10.23;46.98;99787.37;1700313;83;25630;-59
2023/04/26 11:18:33;;;;;;;7.75;3.58;;;;;;;10.17;46.60;99787.84;1700556;84;25632;-60
2023/04/26 11:21:02;;;;;;;6.20;2.87;;;;;;;10.13;47.50;99795.80;1700623;83;25650;-59
2023/04/26 11:23:32;;;;;;;7.95;1.95;;;;;;;10.26;47.84;99792.67;1680619;84;27374;-63
2023/04/26 11:26:04;;;;;;;4.55;2.00;;;;;;;10.42;48.10;99787.59;1700555;84;25491;-68
2023/04/26 11:28:58;;;;;;;8.00;2.10;;;;;;;10.63;47.67;99781.77;1700498;84;25649;-67
2023/04/26 11:31:24;;;;;;;7.00;2.15;;;;;;;10.83;47.48;99789.77;1686958;83;26506;-67
2023/04/26 11:33:50;;;;;;;7.58;2.52;;;;;;;10.96;46.46;99795.28;1750344;81;25584;-68
2023/04/26 11:36:18;;;;;;;5.28;2.65;;;;;;;10.94;45.97;99802.37;1743783;81;27939;-68
2023/04/26 11:38:44;;;;;;;4.37;1.95;;;;;;;11.01;46.03;99799.95;1742354;82;25601;-66